createdAt,value
2023-05-21T00:02:17.073Z,3.80
2023-05-21T00:04:44.293Z,2.90
2023-05-21T00:07:12.133Z,3.30
2023-05-21T00:09:39.027Z,3.40
2023-05-21T00:12:07.418Z,3.20
2023-05-21T00:14:35.391Z,3.20
2023-05-21T00:17:02.245Z,3.90
2023-05-21T00:19:32.212Z,3.80
2023-05-21T00:22:03.295Z,3.10
2023-05-21T00:24:30.219Z,3.80
2023-05-21T00:26:57.067Z,2.90
2023-05-21T00:29:26.096Z,3.20
2023-05-21T00:31:53.375Z,3.60
2023-05-21T00:34:20.381Z,3.80
2023-05-21T00:36:47.658Z,3.70
2023-05-21T00:39:15.389Z,3.10
2023-05-21T00:41:46.069Z,3.70
2023-05-21T00:44:13.401Z,3.40
2023-05-21T00:46:40.513Z,3.30
2023-05-21T00:49:07.549Z,3.50
2023-05-21T00:51:34.450Z,3.30
2023-05-21T00:54:01.826Z,3.60
2023-05-21T00:56:28.785Z,3.40
2023-05-21T00:58:56.759Z,3.30
2023-05-21T01:01:25.501Z,3.80
2023-05-21T01:03:53.839Z,3.00
2023-05-21T01:06:20.876Z,3.60
2023-05-21T01:08:48.038Z,3.10
2023-05-21T01:11:15.923Z,3.80
2023-05-21T01:13:42.878Z,3.60
2023-05-21T01:16:10.433Z,3.00
2023-05-21T01:18:37.815Z,3.80
2023-05-21T01:21:06.792Z,2.90
2023-05-21T01:23:33.967Z,4.00
2023-05-21T01:26:00.796Z,4.00
2023-05-21T01:28:29.522Z,3.30
2023-05-21T01:30:56.242Z,3.70
2023-05-21T01:33:26.837Z,3.60
2023-05-21T01:36:00.067Z,3.70
2023-05-21T01:38:35.999Z,3.60
2023-05-21T01:41:04.223Z,3.20
2023-05-21T01:43:34.107Z,3.40
2023-05-21T01:46:01.268Z,3.40
2023-05-21T01:48:29.118Z,2.90
2023-05-21T01:51:00.605Z,3.90
2023-05-21T01:53:27.744Z,3.70
2023-05-21T01:55:55.406Z,3.40
2023-05-21T01:58:23.562Z,3.40
2023-05-21T02:00:51.245Z,3.40
2023-05-21T02:03:19.404Z,3.20
2023-05-21T02:05:46.803Z,3.80
2023-05-21T02:08:15.109Z,4.10
2023-05-21T02:10:42.033Z,4.10
2023-05-21T02:13:09.421Z,3.50
2023-05-21T02:15:36.546Z,3.50
2023-05-21T02:18:03.858Z,3.40
2023-05-21T02:20:31.048Z,4.30
2023-05-21T02:22:58.731Z,3.40
2023-05-21T02:25:25.526Z,3.90
2023-05-21T02:27:53.424Z,3.10
2023-05-21T02:30:20.497Z,3.80
2023-05-21T02:32:48.381Z,3.80
2023-05-21T02:35:15.425Z,3.50
2023-05-21T02:37:43.508Z,3.50
2023-05-21T02:40:10.544Z,3.20
2023-05-21T02:42:39.116Z,3.30
2023-05-21T02:45:08.350Z,3.60
2023-05-21T02:47:35.157Z,3.90
2023-05-21T02:50:02.252Z,3.50
2023-05-21T02:52:30.156Z,3.60
2023-05-21T02:54:56.975Z,3.50
2023-05-21T02:57:23.753Z,3.20
2023-05-21T02:59:51.586Z,3.40
2023-05-21T03:02:18.739Z,3.40
2023-05-21T03:04:45.627Z,4.20
2023-05-21T03:07:18.512Z,3.50
2023-05-21T03:09:45.928Z,3.60
2023-05-21T03:12:13.131Z,3.10
2023-05-21T03:14:43.474Z,3.40
2023-05-21T03:17:13.340Z,3.50
2023-05-21T03:19:41.207Z,3.50
2023-05-21T03:22:08.163Z,3.90
2023-05-21T03:24:40.818Z,3.60
2023-05-21T03:27:09.027Z,3.80
2023-05-21T03:29:37.083Z,3.80
2023-05-21T03:32:04.909Z,3.20
2023-05-21T03:34:33.976Z,3.70
2023-05-21T03:37:01.638Z,4.60
2023-05-21T03:39:31.452Z,3.80
2023-05-21T03:41:59.130Z,3.10
2023-05-21T03:44:36.408Z,3.70
2023-05-21T03:47:27.652Z,3.30
2023-05-21T03:49:54.672Z,3.30
2023-05-21T03:52:21.646Z,3.40
2023-05-21T03:54:48.871Z,3.10
2023-05-21T03:57:15.640Z,3.10
2023-05-21T03:59:42.701Z,3.50
2023-05-21T04:02:09.584Z,3.40
2023-05-21T04:04:36.480Z,3.10
2023-05-21T04:07:04.131Z,3.60
2023-05-21T04:09:31.294Z,3.60
2023-05-21T04:11:58.272Z,3.70
2023-05-21T04:14:25.290Z,3.60
2023-05-21T04:16:52.655Z,3.10
2023-05-21T04:19:20.701Z,3.80
2023-05-21T04:21:48.474Z,3.00
2023-05-21T04:24:15.844Z,3.40
2023-05-21T04:26:49.921Z,2.90
2023-05-21T04:29:20.917Z,3.40
2023-05-21T04:31:49.036Z,3.40
2023-05-21T04:34:19.421Z,3.30
2023-05-21T04:36:47.040Z,3.20
2023-05-21T04:39:14.244Z,3.00
2023-05-21T04:41:41.121Z,2.70
2023-05-21T04:44:08.851Z,2.90
2023-05-21T04:46:35.836Z,3.20
2023-05-21T04:49:03.180Z,3.30
2023-05-21T04:51:30.494Z,3.70
2023-05-21T04:53:57.690Z,3.30
2023-05-21T04:56:27.644Z,4.00
2023-05-21T04:58:54.765Z,3.40
2023-05-21T05:01:28.873Z,3.50
2023-05-21T05:03:55.991Z,3.40
2023-05-21T05:06:25.339Z,3.40
2023-05-21T05:08:52.289Z,3.20
2023-05-21T05:11:21.789Z,3.60
2023-05-21T05:13:49.029Z,3.80
2023-05-21T05:16:18.892Z,3.80
2023-05-21T05:18:46.423Z,3.90
2023-05-21T05:21:13.398Z,3.80
2023-05-21T05:23:42.288Z,4.40
2023-05-21T05:26:10.451Z,4.60
2023-05-21T05:28:37.312Z,4.10
2023-05-21T05:31:04.496Z,3.90
2023-05-21T05:33:32.567Z,4.30
2023-05-21T05:35:59.454Z,4.00
2023-05-21T05:38:26.883Z,5.00
2023-05-21T05:40:53.840Z,4.40
2023-05-21T05:43:20.977Z,4.40
2023-05-21T05:45:48.790Z,3.80
2023-05-21T05:48:16.296Z,3.70
2023-05-21T05:50:43.831Z,3.70
2023-05-21T05:53:12.636Z,4.00
2023-05-21T05:55:40.112Z,3.50
2023-05-21T05:58:06.881Z,4.30
2023-05-21T06:00:42.098Z,5.00
2023-05-21T06:03:09.081Z,4.10
2023-05-21T06:05:36.317Z,3.00
2023-05-21T06:08:03.766Z,3.30
2023-05-21T06:10:30.827Z,2.90
2023-05-21T06:12:57.982Z,3.40
2023-05-21T06:15:24.951Z,3.10
2023-05-21T06:17:52.101Z,3.30
2023-05-21T06:20:20.064Z,3.60
2023-05-21T06:22:47.210Z,2.80
2023-05-21T06:25:15.697Z,3.10
2023-05-21T06:27:42.777Z,3.30
2023-05-21T06:30:15.565Z,3.30
2023-05-21T06:32:43.983Z,3.20
2023-05-21T06:35:11.167Z,2.90
2023-05-21T06:37:39.440Z,2.70
2023-05-21T06:40:08.144Z,2.80
2023-05-21T06:42:35.510Z,3.10
2023-05-21T06:45:21.391Z,3.80
2023-05-21T06:47:52.008Z,3.50
2023-05-21T06:50:19.701Z,3.20
2023-05-21T06:52:46.725Z,3.30
2023-05-21T06:55:13.914Z,3.00
2023-05-21T06:58:01.081Z,3.80
2023-05-21T07:00:27.958Z,2.90
2023-05-21T07:02:55.060Z,3.40
2023-05-21T07:05:21.907Z,2.90
2023-05-21T07:07:48.920Z,3.80
2023-05-21T07:10:15.840Z,3.70
2023-05-21T07:12:42.644Z,3.50
2023-05-21T07:15:10.587Z,3.50
2023-05-21T07:17:37.802Z,3.20
2023-05-21T07:20:09.401Z,3.80
2023-05-21T07:22:38.329Z,3.20
2023-05-21T07:25:06.367Z,3.10
2023-05-21T07:27:34.296Z,3.40
2023-05-21T07:30:01.340Z,3.20
2023-05-21T07:32:30.054Z,3.40
2023-05-21T07:35:01.200Z,3.30
2023-05-21T07:37:28.242Z,3.40
2023-05-21T07:39:58.192Z,3.30
2023-05-21T07:42:25.671Z,3.50
2023-05-21T07:44:53.316Z,4.10
2023-05-21T07:47:20.142Z,3.80
2023-05-21T07:49:47.269Z,4.40
2023-05-21T07:52:14.219Z,4.80
2023-05-21T07:54:41.071Z,4.60
2023-05-21T07:57:08.003Z,5.20
2023-05-21T08:00:13.730Z,5.80
2023-05-21T08:02:48.216Z,5.00
2023-05-21T08:05:16.114Z,6.00
2023-05-21T08:07:43.119Z,5.20
2023-05-21T08:10:10.330Z,5.20
2023-05-21T08:12:37.700Z,4.90
2023-05-21T08:15:06.373Z,4.10
2023-05-21T08:17:35.270Z,4.40
2023-05-21T08:20:03.245Z,3.80
2023-05-21T08:22:31.122Z,5.20
2023-05-21T08:24:57.875Z,4.00
2023-05-21T08:27:24.742Z,4.20
2023-05-21T08:29:52.386Z,4.80
2023-05-21T08:32:19.153Z,4.70
2023-05-21T08:34:46.179Z,5.40
2023-05-21T08:37:36.608Z,6.10
2023-05-21T08:40:11.885Z,7.10
2023-05-21T08:42:47.126Z,5.00
2023-05-21T08:45:21.639Z,4.00
2023-05-21T08:47:55.718Z,3.80
2023-05-21T08:50:25.622Z,3.80
2023-05-21T08:52:54.786Z,3.50
2023-05-21T08:55:23.085Z,3.70
2023-05-21T08:57:50.339Z,3.60
2023-05-21T09:00:20.176Z,4.30
2023-05-21T09:02:47.711Z,3.50
2023-05-21T09:05:15.027Z,3.80
2023-05-21T09:07:46.757Z,4.30
2023-05-21T09:10:35.184Z,4.50
2023-05-21T09:13:02.829Z,4.10
2023-05-21T09:15:30.078Z,4.20
2023-05-21T09:17:57.354Z,4.10
2023-05-21T09:20:47.196Z,4.60
2023-05-21T09:23:16.774Z,4.50
2023-05-21T09:25:48.232Z,4.50
2023-05-21T09:28:21.899Z,5.00
2023-05-21T09:30:51.523Z,4.80
2023-05-21T09:33:25.649Z,4.10
2023-05-21T09:35:52.620Z,4.80
2023-05-21T09:38:23.404Z,4.30
2023-05-21T09:40:50.571Z,3.80
2023-05-21T09:43:18.043Z,4.20
2023-05-21T09:45:55.190Z,3.80
2023-05-21T09:48:37.934Z,4.10
2023-05-21T09:51:07.741Z,4.00
2023-05-21T09:53:34.727Z,5.10
2023-05-21T09:56:03.147Z,4.40
2023-05-21T09:58:29.919Z,4.20
2023-05-21T10:00:56.798Z,4.20
2023-05-21T10:03:23.622Z,3.30
2023-05-21T10:05:51.113Z,4.30
2023-05-21T10:08:18.446Z,3.70
2023-05-21T10:10:45.502Z,4.40
2023-05-21T10:13:12.451Z,3.90
2023-05-21T10:15:42.688Z,3.70
2023-05-21T10:18:09.766Z,3.70
2023-05-21T10:20:37.120Z,3.60
2023-05-21T10:23:04.367Z,3.30
2023-05-21T10:25:34.515Z,3.70
2023-05-21T10:28:01.384Z,3.50
2023-05-21T10:30:28.312Z,3.90
2023-05-21T10:32:56.576Z,3.90
2023-05-21T10:35:23.663Z,3.50
2023-05-21T10:37:51.074Z,3.50
2023-05-21T10:40:18.038Z,3.10
2023-05-21T10:43:17.203Z,3.80
2023-05-21T10:45:58.994Z,3.30
2023-05-21T10:48:57.565Z,3.30
2023-05-21T10:51:51.404Z,3.40
2023-05-21T10:54:33.522Z,3.80
2023-05-21T10:57:21.333Z,3.10
2023-05-21T10:59:48.198Z,3.90
2023-05-21T11:02:15.722Z,3.60
2023-05-21T11:04:48.548Z,3.70
2023-05-21T11:07:16.933Z,3.70
2023-05-21T11:09:43.982Z,3.60
2023-05-21T11:12:12.370Z,3.40
2023-05-21T11:14:41.603Z,4.30
2023-05-21T11:17:08.439Z,4.10
2023-05-21T11:19:37.139Z,3.40
2023-05-21T11:22:08.776Z,3.10
2023-05-21T11:24:40.735Z,3.70
2023-05-21T11:27:08.067Z,4.00
2023-05-21T11:29:43.639Z,3.90
2023-05-21T11:32:11.906Z,3.20
2023-05-21T11:34:40.127Z,3.60
2023-05-21T11:37:16.718Z,3.10
2023-05-21T11:39:44.343Z,3.60
2023-05-21T11:42:11.192Z,4.60
2023-05-21T11:44:41.322Z,4.40
2023-05-21T11:47:18.325Z,5.30
2023-05-21T11:49:45.676Z,3.80
2023-05-21T11:52:12.979Z,3.70
2023-05-21T11:54:49.969Z,3.80
2023-05-21T11:57:18.521Z,4.40
2023-05-21T11:59:45.838Z,4.00
2023-05-21T12:02:16.787Z,3.10
2023-05-21T12:04:44.856Z,2.70
2023-05-21T12:07:12.826Z,3.10
2023-05-21T12:09:44.175Z,3.80
2023-05-21T12:12:13.605Z,4.20
2023-05-21T12:14:46.045Z,4.00
2023-05-21T12:17:15.058Z,4.80
2023-05-21T12:19:42.105Z,4.00
2023-05-21T12:22:08.994Z,6.20
2023-05-21T12:24:36.648Z,4.10
2023-05-21T12:27:08.994Z,2.70
2023-05-21T12:29:40.019Z,3.00
2023-05-21T12:32:08.814Z,3.00
2023-05-21T12:34:45.722Z,2.80
2023-05-21T12:37:16.328Z,3.20
2023-05-21T12:39:44.222Z,2.90
2023-05-21T12:42:11.222Z,2.40
2023-05-21T12:44:39.561Z,3.30
2023-05-21T12:47:06.592Z,3.40
2023-05-21T12:49:35.833Z,3.10
2023-05-21T12:52:04.399Z,3.20
2023-05-21T12:54:33.700Z,3.60
2023-05-21T12:57:14.144Z,3.90
2023-05-21T12:59:47.778Z,2.90
2023-05-21T13:02:21.046Z,3.20
2023-05-21T13:04:48.228Z,2.70
2023-05-21T13:07:16.028Z,3.30
2023-05-21T13:09:43.791Z,3.80
2023-05-21T13:12:11.810Z,4.20
2023-05-21T13:14:39.181Z,3.70
2023-05-21T13:17:06.223Z,3.70
2023-05-21T13:19:33.212Z,4.20
2023-05-21T13:24:17.818Z,3.90
2023-05-21T13:26:44.756Z,4.10
2023-05-21T13:29:14.991Z,4.40
2023-05-21T13:31:42.448Z,4.50
2023-05-21T13:34:11.105Z,5.50
2023-05-21T13:36:38.044Z,6.00
2023-05-21T13:39:05.021Z,6.00
2023-05-21T13:41:31.933Z,7.00
2023-05-21T13:43:59.257Z,5.80
2023-05-21T13:46:26.211Z,4.80
2023-05-21T13:48:53.204Z,4.50
2023-05-21T13:51:34.540Z,4.80
2023-05-21T13:54:04.935Z,4.60
2023-05-21T13:56:33.838Z,3.90
2023-05-21T13:59:01.706Z,3.50
2023-05-21T14:01:28.695Z,3.50
2023-05-21T14:03:55.893Z,3.40
2023-05-21T14:06:22.962Z,3.10
2023-05-21T14:08:49.843Z,3.10
2023-05-21T14:11:17.889Z,3.40
2023-05-21T14:13:44.857Z,4.10
2023-05-21T14:16:11.844Z,4.10
2023-05-21T14:18:38.948Z,2.90
2023-05-21T14:21:05.999Z,3.20
2023-05-21T14:23:33.199Z,3.20
2023-05-21T14:26:00.233Z,3.00
2023-05-21T14:28:27.190Z,3.20
2023-05-21T14:30:54.373Z,2.80
2023-05-21T14:33:21.366Z,3.00
2023-05-21T14:35:48.994Z,2.90
2023-05-21T14:38:16.727Z,2.90
2023-05-21T14:40:43.754Z,3.10
2023-05-21T14:43:10.681Z,3.20
2023-05-21T14:45:37.797Z,2.50
2023-05-21T14:48:11.933Z,3.20
2023-05-21T14:50:39.338Z,2.70
2023-05-21T14:53:09.995Z,2.60
2023-05-21T14:55:37.409Z,2.80
2023-05-21T14:58:05.195Z,3.10
2023-05-21T15:00:32.584Z,3.10
2023-05-21T15:02:59.727Z,3.20
2023-05-21T15:05:28.146Z,3.20
2023-05-21T15:07:56.301Z,3.00
2023-05-21T15:10:24.037Z,3.10
2023-05-21T15:12:51.433Z,3.70
2023-05-21T15:15:20.875Z,4.50
2023-05-21T15:17:48.604Z,4.60
2023-05-21T15:20:15.801Z,6.10
2023-05-21T15:22:42.803Z,6.10
2023-05-21T15:25:10.761Z,5.80
2023-05-21T15:27:38.028Z,5.50
2023-05-21T15:30:05.891Z,5.20
2023-05-21T15:32:32.854Z,5.00
2023-05-21T15:35:00.262Z,4.50
2023-05-21T15:37:27.492Z,6.00
2023-05-21T15:39:54.437Z,4.30
2023-05-21T15:42:21.585Z,5.20
2023-05-21T15:44:49.027Z,4.50
2023-05-21T15:47:16.287Z,4.90
2023-05-21T15:49:43.545Z,3.80
2023-05-21T15:52:10.703Z,4.10
2023-05-21T15:54:37.749Z,3.60
2023-05-21T15:57:04.870Z,3.80
2023-05-21T15:59:31.886Z,4.20
2023-05-21T16:01:59.072Z,3.90
2023-05-21T16:04:26.095Z,3.90
2023-05-21T16:06:53.163Z,3.90
2023-05-21T16:09:20.078Z,3.40
2023-05-21T16:11:49.098Z,3.80
2023-05-21T16:14:16.427Z,3.40
2023-05-21T16:16:43.639Z,3.90
2023-05-21T16:19:10.926Z,5.50
2023-05-21T16:21:38.051Z,6.10
2023-05-21T16:24:05.769Z,5.70
2023-05-21T16:26:32.934Z,5.90
2023-05-21T16:29:02.245Z,5.10
2023-05-21T16:31:29.403Z,5.70
2023-05-21T16:33:56.544Z,5.50
2023-05-21T16:36:23.561Z,5.70
2023-05-21T16:38:50.643Z,5.50
2023-05-21T16:41:17.694Z,5.60
2023-05-21T16:43:44.776Z,5.60
2023-05-21T16:46:12.031Z,5.30
2023-05-21T16:48:40.181Z,5.90
2023-05-21T16:51:07.338Z,6.60
2023-05-21T16:53:34.494Z,5.50
2023-05-21T16:56:01.514Z,5.30
2023-05-21T16:58:28.469Z,6.00
2023-05-21T17:00:55.457Z,6.60
2023-05-21T17:03:22.714Z,6.80
2023-05-21T17:05:50.052Z,7.30
2023-05-21T17:08:17.065Z,6.70
2023-05-21T17:10:44.003Z,5.70
2023-05-21T17:13:21.536Z,6.00
2023-05-21T17:15:51.169Z,5.30
2023-05-21T17:18:18.215Z,5.60
2023-05-21T17:20:45.188Z,4.80
2023-05-21T17:23:12.368Z,5.50
2023-05-21T17:25:40.213Z,5.00
2023-05-21T17:28:07.685Z,5.10
2023-05-21T17:30:34.728Z,4.50
2023-05-21T17:33:04.498Z,4.70
2023-05-21T17:35:31.458Z,4.20
2023-05-21T17:37:58.388Z,4.20
2023-05-21T17:40:25.338Z,4.40
2023-05-21T17:42:52.813Z,4.40
2023-05-21T17:45:55.688Z,4.10
2023-05-21T17:48:22.672Z,4.70
2023-05-21T17:50:49.826Z,5.10
2023-05-21T17:53:16.778Z,5.80
2023-05-21T17:55:44.051Z,5.80
2023-05-21T17:58:11.095Z,5.70
2023-05-21T18:00:38.132Z,5.30
2023-05-21T18:03:06.979Z,4.90
2023-05-21T18:05:35.950Z,5.80
2023-05-21T18:08:10.184Z,5.30
2023-05-21T18:10:37.908Z,5.20
2023-05-21T18:13:05.080Z,5.00
2023-05-21T18:15:33.252Z,5.00
2023-05-21T18:18:00.391Z,4.70
2023-05-21T18:20:27.563Z,5.30
2023-05-21T18:22:54.550Z,5.10
2023-05-21T18:25:21.879Z,4.80
2023-05-21T18:27:48.755Z,5.00
2023-05-21T18:30:15.906Z,4.70
2023-05-21T18:32:44.552Z,8.20
2023-05-21T18:35:13.647Z,11.80
2023-05-21T18:37:44.615Z,10.50
2023-05-21T18:40:12.718Z,10.00
2023-05-21T18:42:39.611Z,9.50
2023-05-21T18:45:08.347Z,8.50
2023-05-21T18:47:35.389Z,7.50
2023-05-21T18:50:02.306Z,6.10
2023-05-21T18:52:29.182Z,7.90
2023-05-21T18:54:56.097Z,8.50
2023-05-21T18:57:23.186Z,8.80
2023-05-21T18:59:50.242Z,8.00
2023-05-21T19:02:17.546Z,6.80
2023-05-21T19:04:44.519Z,7.00
2023-05-21T19:07:11.461Z,7.00
2023-05-21T19:09:38.332Z,7.30
2023-05-21T19:12:07.792Z,7.50
2023-05-21T19:14:34.701Z,6.00
2023-05-21T19:17:01.622Z,7.60
2023-05-21T19:19:28.809Z,6.30
2023-05-21T19:21:56.008Z,7.00
2023-05-21T19:24:22.899Z,6.70
2023-05-21T19:26:49.865Z,7.30
2023-05-21T19:29:16.846Z,6.50
2023-05-21T19:31:43.740Z,7.30
2023-05-21T19:34:11.047Z,7.10
2023-05-21T19:36:51.629Z,6.30
2023-05-21T19:39:20.815Z,6.50
2023-05-21T19:41:47.733Z,5.60
2023-05-21T19:44:14.666Z,6.00
2023-05-21T19:46:41.599Z,5.90
2023-05-21T19:49:10.739Z,5.70
2023-05-21T19:51:37.796Z,5.40
2023-05-21T19:54:04.849Z,5.70
2023-05-21T19:56:31.712Z,4.70
2023-05-21T19:58:58.577Z,4.30
2023-05-21T20:01:25.552Z,4.30
2023-05-21T20:03:52.574Z,4.30
2023-05-21T20:06:20.895Z,4.10
2023-05-21T20:08:48.226Z,3.60
2023-05-21T20:11:15.199Z,3.90
2023-05-21T20:13:42.495Z,3.40
2023-05-21T20:16:10.609Z,3.40
2023-05-21T20:18:37.734Z,3.20
2023-05-21T20:21:06.406Z,3.20
2023-05-21T20:23:33.398Z,3.30
2023-05-21T20:26:00.333Z,2.90
2023-05-21T20:28:27.384Z,3.00
2023-05-21T20:30:58.159Z,2.80
2023-05-21T20:33:28.054Z,2.90
2023-05-21T20:35:55.079Z,3.00
2023-05-21T20:38:22.206Z,3.00
2023-05-21T20:40:49.101Z,2.80
2023-05-21T20:43:15.972Z,3.20
2023-05-21T20:45:43.903Z,2.80
2023-05-21T20:48:12.217Z,3.00
2023-05-21T20:50:40.976Z,4.00
2023-05-21T20:53:08.586Z,3.60
2023-05-21T20:55:38.722Z,3.20
2023-05-21T20:58:05.855Z,3.50
2023-05-21T21:00:33.594Z,2.70
2023-05-21T21:03:02.062Z,3.50
2023-05-21T21:05:29.260Z,3.30
2023-05-21T21:07:56.218Z,3.70
2023-05-21T21:10:23.111Z,4.40
2023-05-21T21:12:50.191Z,3.60
2023-05-21T21:15:17.364Z,3.30
2023-05-21T21:17:44.369Z,3.20
2023-05-21T21:20:13.762Z,2.80
2023-05-21T21:22:41.479Z,3.50
2023-05-21T21:25:09.141Z,3.20
2023-05-21T21:27:36.386Z,3.20
2023-05-21T21:30:04.734Z,3.20
2023-05-21T21:32:31.660Z,2.70
2023-05-21T21:34:58.681Z,3.00
2023-05-21T21:37:25.863Z,3.30
2023-05-21T21:39:53.518Z,2.50
2023-05-21T21:42:20.560Z,3.20
2023-05-21T21:44:47.471Z,3.40
2023-05-21T21:47:14.420Z,3.30
2023-05-21T21:49:41.790Z,3.10
2023-05-21T21:52:08.796Z,3.50
2023-05-21T21:54:35.677Z,4.20
2023-05-21T21:57:02.596Z,5.00
2023-05-21T21:59:29.479Z,5.40
2023-05-21T22:01:56.781Z,5.60
2023-05-21T22:04:23.742Z,6.20
2023-05-21T22:06:52.111Z,6.00
2023-05-21T22:09:22.674Z,6.70
2023-05-21T22:11:49.904Z,6.90
2023-05-21T22:14:18.349Z,6.00
2023-05-21T22:16:47.642Z,5.80
2023-05-21T22:19:16.320Z,5.70
2023-05-21T22:21:43.658Z,5.20
2023-05-21T22:24:24.154Z,5.70
2023-05-21T22:26:57.712Z,6.50
2023-05-21T22:29:24.758Z,5.90
2023-05-21T22:31:51.815Z,6.20
2023-05-21T22:34:18.783Z,6.30
2023-05-21T22:36:46.953Z,4.10
2023-05-21T22:39:14.422Z,3.80
2023-05-21T22:41:42.223Z,3.90
2023-05-21T22:44:09.435Z,3.10
2023-05-21T22:46:36.545Z,3.30
2023-05-21T22:49:03.746Z,2.70
2023-05-21T22:51:34.966Z,3.20
2023-05-21T22:54:02.151Z,2.80
2023-05-21T22:56:29.338Z,2.80
2023-05-21T22:58:56.510Z,3.20
2023-05-21T23:01:23.595Z,2.50
2023-05-21T23:03:51.422Z,2.60
2023-05-21T23:06:18.558Z,2.60
2023-05-21T23:08:45.799Z,2.90
2023-05-21T23:11:12.792Z,3.20
2023-05-21T23:13:39.802Z,3.20
2023-05-21T23:16:07.297Z,3.10
2023-05-21T23:18:35.311Z,3.10
2023-05-21T23:23:29.269Z,2.80
2023-05-21T23:25:57.876Z,2.80
2023-05-21T23:28:25.782Z,3.20
2023-05-21T23:30:52.874Z,3.30
2023-05-21T23:33:20.015Z,2.90
2023-05-21T23:35:47.067Z,3.50
2023-05-21T23:38:14.127Z,4.00
2023-05-21T23:40:41.682Z,3.90
2023-05-21T23:43:08.649Z,3.70
2023-05-21T23:45:35.898Z,3.80
2023-05-21T23:48:02.965Z,4.50
2023-05-21T23:50:29.953Z,4.50
2023-05-21T23:52:56.846Z,4.30
2023-05-21T23:55:23.768Z,5.30
2023-05-21T23:57:50.737Z,5.00
